| time (UTC) | temp C | wind direction | speed KPH | gust KPH | rain 1hr cm | rain 24hr cm | rain mn cm | humidity % | barometer mb |
| 20260510190530 | 20 | 320 | 20.9 | 25.7 | 0.00 | 0.00 | 0.00 | 25 | 1020.8 |
| 20260510190027 | 20 | 275 | 6.4 | 11.3 | 0.00 | 0.00 | 0.00 | 25 | 1020.4 |
| 20260510185524 | 20 | 273 | 1.6 | 9.7 | 0.00 | 0.00 | 0.00 | 27 | 1020.5 |
| 20260510185022 | 20 | 302 | 11.3 | 20.9 | 0.00 | 0.00 | 0.00 | 27 | 1020.6 |
| 20260510184519 | 20 | 31 | 11.3 | 14.5 | 0.00 | 0.00 | 0.00 | 24 | 1020.6 |
| 20260510184014 | 20 | 40 | 6.4 | 12.9 | 0.00 | 0.00 | 0.00 | 26 | 1020.5 |
| 20260510183509 | 20 | 178 | 3.2 | 12.9 | 0.00 | 0.00 | 0.00 | 27 | 1020.4 |
| 20260510183005 | 20 | 263 | 6.4 | 9.7 | 0.00 | 0.00 | 0.00 | 25 | 1020.5 |
| 20260510182503 | 20 | 34 | 8.0 | 12.9 | 0.00 | 0.00 | 0.00 | 26 | 1020.6 |
| 20260510181957 | 20 | 8 | 14.5 | 20.9 | 0.00 | 0.00 | 0.00 | 25 | 1020.6 |
| 20260510181456 | 21 | 355 | 4.8 | 8.0 | 0.00 | 0.00 | 0.00 | 24 | 1020.6 |
| 20260510180950 | 20 | 6 | 8.0 | 12.9 | 0.00 | 0.00 | 0.00 | 25 | 1020.7 |
| 20260510180448 | 18 | 10 | 0.0 | 14.5 | 0.00 | 0.00 | 0.00 | 27 | 1020.7 |
| 20260510175945 | 19 | 7 | 8.0 | 17.7 | 0.00 | 0.00 | 0.00 | 27 | 1020.9 |
| 20260510175441 | 19 | 342 | 11.3 | 20.9 | 0.00 | 0.00 | 0.00 | 27 | 1020.7 |
| 20260510174937 | 19 | 347 | 11.3 | 12.9 | 0.00 | 0.00 | 0.00 | 27 | 1020.8 |
| 20260510174436 | 18 | 224 | 3.2 | 8.0 | 0.00 | 0.00 | 0.00 | 30 | 1020.8 |
| 20260510173932 | 20 | 343 | 17.7 | 20.9 | 0.00 | 0.00 | 0.00 | 27 | 1020.7 |
| 20260510173427 | 20 | 331 | 14.5 | 14.5 | 0.00 | 0.00 | 0.00 | 27 | 1020.6 |
| 20260510172924 | 18 | 337 | 11.3 | 14.5 | 0.00 | 0.00 | 0.00 | 27 | 1020.8 |
| 20260510172420 | 18 | 5 | 11.3 | 14.5 | 0.00 | 0.00 | 0.00 | 28 | 1020.8 |
| 20260510171916 | 18 | 285 | 8.0 | 12.9 | 0.00 | 0.00 | 0.00 | 29 | 1020.8 |
| 20260510171413 | 18 | 277 | 11.3 | 17.7 | 0.00 | 0.00 | 0.00 | 31 | 1020.9 |
| 20260510170910 | 18 | 308 | 17.7 | 25.7 | 0.00 | 0.00 | 0.00 | 29 | 1020.7 |
| 20260510170407 | 18 | 259 | 12.9 | 27.4 | 0.00 | 0.00 | 0.00 | 28 | 1021.0 |
| 20260510165902 | 19 | 269 | 3.2 | 9.7 | 0.00 | 0.00 | 0.00 | 29 | 1021.2 |
| 20260510165358 | 18 | 342 | 4.8 | 16.1 | 0.00 | 0.00 | 0.00 | 31 | 1021.1 |
| 20260510164856 | 19 | 38 | 3.2 | 11.3 | 0.00 | 0.00 | 0.00 | 29 | 1021.1 |
| 20260510164353 | 19 | 329 | 4.8 | 24.1 | 0.00 | 0.00 | 0.00 | 29 | 1021.2 |
| 20260510163852 | 19 | 358 | 4.8 | 9.7 | 0.00 | 0.00 | 0.00 | 30 | 1021.1 |
| 20260510163349 | 18 | 14 | 4.8 | 11.3 | 0.00 | 0.00 | 0.00 | 28 | 1021.4 |
| 20260510162844 | 18 | 306 | 3.2 | 11.3 | 0.00 | 0.00 | 0.00 | 30 | 1021.0 |
| 20260510162342 | 18 | 25 | 4.8 | 12.9 | 0.00 | 0.00 | 0.00 | 31 | 1021.2 |
| 20260510161837 | 18 | 13 | 11.3 | 16.1 | 0.00 | 0.00 | 0.00 | 32 | 1021.2 |
| 20260510161333 | 17 | 265 | 6.4 | 9.7 | 0.00 | 0.00 | 0.00 | 34 | 1021.2 |
| 20260510160830 | 18 | 36 | 4.8 | 9.7 | 0.00 | 0.00 | 0.00 | 31 | 1021.1 |
| 20260510160326 | 18 | 32 | 8.0 | 14.5 | 0.00 | 0.00 | 0.00 | 30 | 1021.2 |
| 20260510155821 | 17 | 317 | 4.8 | 4.8 | 0.00 | 0.00 | 0.00 | 30 | 1021.2 |
| 20260510155318 | 18 | 288 | 6.4 | 12.9 | 0.00 | 0.00 | 0.00 | 33 | 1021.4 |
| 20260510154814 | 18 | 28 | 3.2 | 11.3 | 0.00 | 0.00 | 0.00 | 27 | 1021.2 |
| 20260510154310 | 18 | 264 | 3.2 | 9.7 | 0.00 | 0.00 | 0.00 | 32 | 1021.1 |
| 20260510153804 | 18 | 49 | 1.6 | 9.7 | 0.00 | 0.00 | 0.00 | 36 | 1020.9 |
| 20260510153300 | 17 | 50 | 6.4 | 12.9 | 0.00 | 0.00 | 0.00 | 36 | 1020.6 |
| 20260510152757 | 17 | 334 | 6.4 | 12.9 | 0.00 | 0.00 | 0.00 | 40 | 1020.8 |
| 20260510152254 | 17 | 7 | 6.4 | 17.7 | 0.00 | 0.00 | 0.00 | 39 | 1020.7 |
| 20260510151750 | 17 | 10 | 3.2 | 8.0 | 0.00 | 0.00 | 0.00 | 38 | 1020.8 |
| 20260510151249 | 17 | 351 | 1.6 | 14.5 | 0.00 | 0.00 | 0.00 | 40 | 1020.7 |
| 20260510150744 | 17 | 40 | 6.4 | 11.3 | 0.00 | 0.00 | 0.00 | 42 | 1020.8 |
| 20260510150240 | 17 | 335 | 12.9 | 14.5 | 0.00 | 0.00 | 0.00 | 40 | 1020.5 |
| 20260510145736 | 17 | 359 | 4.8 | 8.0 | 0.00 | 0.00 | 0.00 | 42 | 1020.6 |
| 20260510145233 | 17 | 13 | 8.0 | 14.5 | 0.00 | 0.00 | 0.00 | 41 | 1020.2 |
| 20260510144729 | 16 | 36 | 6.4 | 9.7 | 0.00 | 0.00 | 0.00 | 44 | 1020.0 |
| 20260510144226 | 17 | 32 | 8.0 | 11.3 | 0.00 | 0.00 | 0.00 | 43 | 1020.0 |
| 20260510143720 | 16 | 116 | 1.6 | 9.7 | 0.00 | 0.00 | 0.00 | 43 | 1020.1 |
| 20260510143217 | 16 | 69 | 4.8 | 9.7 | 0.00 | 0.00 | 0.00 | 44 | 1020.1 |
| 20260510142714 | 16 | 331 | 8.0 | 12.9 | 0.00 | 0.00 | 0.00 | 44 | 1020.0 |
| 20260510142210 | 16 | 337 | 8.0 | 14.5 | 0.00 | 0.00 | 0.00 | 45 | 1020.2 |
| 20260510141707 | 16 | 72 | 3.2 | 9.7 | 0.00 | 0.00 | 0.00 | 45 | 1020.0 |
| 20260510141206 | 16 | 119 | 8.0 | 12.9 | 0.00 | 0.00 | 0.00 | 45 | 1020.0 |
| 20260510140702 | 16 | 340 | 4.8 | 14.5 | 0.00 | 0.00 | 0.00 | 44 | 1020.2 |
| 20260510140202 | 15 | 11 | 4.8 | 17.7 | 0.00 | 0.00 | 0.00 | 45 | 1020.2 |
| 20260510135656 | 15 | 3 | 8.0 | 11.3 | 0.00 | 0.00 | 0.00 | 48 | 1020.1 |
| 20260510135153 | 15 | 1 | 4.8 | 11.3 | 0.00 | 0.00 | 0.00 | 48 | 1020.1 |
| 20260510134650 | 15 | 344 | 11.3 | 14.5 | 0.00 | 0.00 | 0.00 | 46 | 1020.2 |
| 20260510134147 | 15 | 45 | 3.2 | 4.8 | 0.00 | 0.00 | 0.00 | 48 | 1020.1 |
| 20260510133643 | 15 | 8 | 6.4 | 12.9 | 0.00 | 0.00 | 0.00 | 48 | 1019.9 |
| 20260510133138 | 15 | 39 | 4.8 | 9.7 | 0.00 | 0.00 | 0.00 | 48 | 1019.9 |
| 20260510132636 | 14 | 339 | 3.2 | 4.8 | 0.00 | 0.00 | 0.00 | 49 | 1019.9 |
| 20260510132133 | 13 | 283 | 9.7 | 14.5 | 0.00 | 0.00 | 0.00 | 49 | 1020.1 |
| 20260510131630 | 14 | 352 | 8.0 | 11.3 | 0.00 | 0.00 | 0.00 | 50 | 1019.7 |
| 20260510131128 | 13 | 1 | 1.6 | 9.7 | 0.00 | 0.00 | 0.00 | 51 | 1019.6 |
| 20260510130624 | 13 | 359 | 4.8 | 11.3 | 0.00 | 0.00 | 0.00 | 51 | 1019.6 |
| 20260510130121 | 13 | 346 | 14.5 | 16.1 | 0.00 | 0.00 | 0.00 | 51 | 1019.5 |
| 20260510125618 | 13 | 295 | 4.8 | 8.0 | 0.00 | 0.00 | 0.00 | 52 | 1019.5 |
| 20260510125114 | 13 | 3 | 6.4 | 9.7 | 0.00 | 0.00 | 0.00 | 54 | 1019.6 |
| 20260510124611 | 13 | 300 | 4.8 | 11.3 | 0.00 | 0.00 | 0.00 | 54 | 1019.5 |
| 20260510124108 | 12 | 12 | 4.8 | 8.0 | 0.00 | 0.00 | 0.00 | 56 | 1019.2 |
| 20260510123603 | 12 | 0 | 4.8 | 12.9 | 0.00 | 0.00 | 0.00 | 56 | 1019.3 |
| 20260510123059 | 12 | 318 | 6.4 | 9.7 | 0.00 | 0.00 | 0.00 | 56 | 1019.5 |
| 20260510122555 | 12 | 6 | 8.0 | 9.7 | 0.00 | 0.00 | 0.00 | 57 | 1019.2 |
| 20260510122051 | 12 | 243 | 1.6 | 8.0 | 0.00 | 0.00 | 0.00 | 57 | 1018.9 |
| 20260510121548 | 12 | 277 | 1.6 | 8.0 | 0.00 | 0.00 | 0.00 | 58 | 1018.6 |
| 20260510121045 | 12 | 2 | 4.8 | 8.0 | 0.00 | 0.00 | 0.00 | 59 | 1018.6 |
| 20260510120544 | 12 | 323 | 4.8 | 11.3 | 0.00 | 0.00 | 0.00 | 59 | 1018.5 |
| 20260510120038 | 12 | 355 | 8.0 | 11.3 | 0.00 | 0.00 | 0.00 | 59 | 1018.2 |
| 20260510115535 | 12 | 336 | 3.2 | 4.8 | 0.00 | 0.00 | 0.00 | 60 | 1018.2 |
| 20260510115032 | 11 | 348 | 1.6 | 11.3 | 0.00 | 0.00 | 0.00 | 61 | 1018.0 |
| 20260510114528 | 11 | 42 | 0.0 | 3.2 | 0.00 | 0.00 | 0.00 | 61 | 1018.0 |
| 20260510114025 | 11 | 14 | 3.2 | 4.8 | 0.00 | 0.00 | 0.00 | 61 | 1018.0 |
| 20260510113520 | 11 | 21 | 3.2 | 4.8 | 0.00 | 0.00 | 0.00 | 62 | 1017.8 |
| 20260510113018 | 11 | 12 | 6.4 | 9.7 | 0.00 | 0.00 | 0.00 | 63 | 1017.8 |
| 20260510112514 | 11 | 292 | 3.2 | 4.8 | 0.00 | 0.00 | 0.00 | 64 | 1017.9 |
| 20260510112010 | 11 | 337 | 0.0 | 1.6 | 0.00 | 0.00 | 0.00 | 65 | 1017.6 |
| 20260510111507 | 11 | 292 | 1.6 | 3.2 | 0.00 | 0.00 | 0.00 | 65 | 1017.7 |
| 20260510111003 | 11 | 246 | 0.0 | 1.6 | 0.00 | 0.00 | 0.00 | 65 | 1017.7 |
| 20260510110459 | 11 | 250 | 0.0 | 1.6 | 0.00 | 0.00 | 0.00 | 65 | 1017.4 |
| 20260510105955 | 11 | 280 | 4.8 | 4.8 | 0.00 | 0.00 | 0.00 | 64 | 1017.5 |
| 20260510105451 | 11 | 294 | 3.2 | 3.2 | 0.00 | 0.00 | 0.00 | 63 | 1017.3 |
| 20260510104946 | 11 | 322 | 3.2 | 4.8 | 0.00 | 0.00 | 0.00 | 63 | 1017.4 |
| 20260510104443 | 11 | 276 | 3.2 | 8.0 | 0.00 | 0.00 | 0.00 | 63 | 1017.2 |
| 20260510103939 | 11 | 279 | 1.6 | 3.2 | 0.00 | 0.00 | 0.00 | 64 | 1017.0 |
| 20260510103437 | 11 | 278 | 3.2 | 3.2 | 0.00 | 0.00 | 0.00 | 64 | 1016.9 |
| 20260510102932 | 12 | 289 | 1.6 | 4.8 | 0.00 | 0.00 | 0.00 | 62 | 1017.1 |
| 20260510102428 | 12 | 318 | 3.2 | 3.2 | 0.00 | 0.00 | 0.00 | 62 | 1016.9 |
| 20260510101925 | 12 | 351 | 3.2 | 4.8 | 0.00 | 0.00 | 0.00 | 62 | 1016.9 |
| 20260510101423 | 12 | 330 | 1.6 | 3.2 | 0.00 | 0.00 | 0.00 | 61 | 1016.7 |
| 20260510100921 | 12 | 249 | 0.0 | 8.0 | 0.00 | 0.00 | 0.00 | 61 | 1016.6 |
| 20260510100417 | 12 | 332 | 4.8 | 4.8 | 0.00 | 0.00 | 0.00 | 61 | 1016.6 |
| 20260510095914 | 12 | 268 | 3.2 | 9.7 | 0.00 | 0.00 | 0.00 | 60 | 1016.4 |
| 20260510095409 | 12 | 286 | 3.2 | 4.8 | 0.00 | 0.00 | 0.00 | 60 | 1016.3 |
| 20260510094908 | 12 | 347 | 3.2 | 4.8 | 0.00 | 0.00 | 0.00 | 60 | 1015.9 |
| 20260510094403 | 13 | 273 | 4.8 | 8.0 | 0.00 | 0.00 | 0.00 | 60 | 1016.1 |
| 20260510093859 | 12 | 313 | 4.8 | 4.8 | 0.00 | 0.00 | 0.00 | 61 | 1015.7 |
| 20260510093350 | 13 | 261 | 3.2 | 8.0 | 0.00 | 0.00 | 0.00 | 61 | 1015.3 |
| 20260510092846 | 13 | 292 | 1.6 | 4.8 | 0.00 | 0.00 | 0.00 | 61 | 1015.2 |
| 20260510092343 | 13 | 266 | 3.2 | 8.0 | 0.00 | 0.00 | 0.00 | 61 | 1015.3 |
| 20260510091838 | 13 | 267 | 3.2 | 4.8 | 0.00 | 0.00 | 0.00 | 62 | 1015.2 |
| 20260510091336 | 13 | 315 | 6.4 | 8.0 | 0.00 | 0.00 | 0.00 | 61 | 1015.1 |
| 20260510090832 | 13 | 321 | 1.6 | 3.2 | 0.00 | 0.00 | 0.00 | 62 | 1015.1 |
| 20260510090329 | 13 | 342 | 3.2 | 8.0 | 0.00 | 0.00 | 0.00 | 62 | 1015.2 |
| 20260510085825 | 13 | 326 | 4.8 | 8.0 | 0.00 | 0.00 | 0.00 | 62 | 1015.1 |
| 20260510085324 | 13 | 335 | 6.4 | 8.0 | 0.00 | 0.00 | 0.00 | 61 | 1015.1 |
| 20260510084820 | 13 | 307 | 3.2 | 8.0 | 0.00 | 0.00 | 0.00 | 61 | 1015.1 |
| 20260510084318 | 13 | 330 | 4.8 | 4.8 | 0.00 | 0.00 | 0.00 | 61 | 1014.9 |
| 20260510083814 | 13 | 308 | 4.8 | 4.8 | 0.00 | 0.00 | 0.00 | 62 | 1014.8 |
| 20260510083311 | 14 | 282 | 1.6 | 1.6 | 0.00 | 0.00 | 0.00 | 62 | 1014.5 |
| 20260510082806 | 14 | 282 | 3.2 | 3.2 | 0.00 | 0.00 | 0.00 | 62 | 1014.6 |
| 20260510082306 | 14 | 46 | 1.6 | 4.8 | 0.00 | 0.00 | 0.00 | 62 | 1014.7 |
| 20260510081803 | 14 | 288 | 1.6 | 3.2 | 0.00 | 0.00 | 0.00 | 62 | 1014.5 |
| 20260510081259 | 14 | 264 | 0.0 | 1.6 | 0.00 | 0.00 | 0.00 | 62 | 1014.6 |
| 20260510080755 | 15 | 290 | 3.2 | 4.8 | 0.00 | 0.00 | 0.00 | 61 | 1014.6 |
| 20260510080250 | 15 | 311 | 4.8 | 4.8 | 0.00 | 0.00 | 0.00 | 60 | 1014.5 |
| 20260510075747 | 15 | 335 | 4.8 | 9.7 | 0.00 | 0.00 | 0.00 | 60 | 1014.7 |
| 20260510075245 | 15 | 306 | 3.2 | 3.2 | 0.00 | 0.00 | 0.00 | 62 | 1014.5 |
| 20260510074741 | 15 | 312 | 3.2 | 3.2 | 0.00 | 0.00 | 0.00 | 61 | 1014.6 |
| 20260510074238 | 15 | 279 | 1.6 | 3.2 | 0.00 | 0.00 | 0.00 | 60 | 1014.4 |
| 20260510073734 | 15 | 274 | 3.2 | 3.2 | 0.00 | 0.00 | 0.00 | 60 | 1014.6 |
| 20260510073230 | 15 | 301 | 1.6 | 3.2 | 0.00 | 0.00 | 0.00 | 60 | 1014.6 |
| 20260510072726 | 16 | 268 | 1.6 | 4.8 | 0.00 | 0.00 | 0.00 | 60 | 1014.6 |
| 20260510072223 | 16 | 327 | 4.8 | 4.8 | 0.00 | 0.00 | 0.00 | 60 | 1014.6 |
| 20260510071719 | 16 | 263 | 3.2 | 3.2 | 0.00 | 0.00 | 0.00 | 61 | 1014.5 |
| 20260510071216 | 16 | 308 | 1.6 | 3.2 | 0.00 | 0.00 | 0.00 | 61 | 1014.6 |
| 20260510070714 | 16 | 345 | 4.8 | 4.8 | 0.00 | 0.00 | 0.00 | 60 | 1014.4 |
| 20260510070211 | 16 | 317 | 3.2 | 3.2 | 0.00 | 0.00 | 0.00 | 60 | 1014.6 |
| 20260510065706 | 16 | 321 | 1.6 | 1.6 | 0.00 | 0.00 | 0.00 | 60 | 1014.5 |
| 20260510065203 | 16 | 322 | 3.2 | 4.8 | 0.00 | 0.00 | 0.00 | 61 | 1014.7 |
| 20260510064659 | 16 | 266 | 1.6 | 1.6 | 0.00 | 0.00 | 0.00 | 62 | 1014.6 |
| 20260510064157 | 16 | 325 | 1.6 | 3.2 | 0.00 | 0.00 | 0.00 | 61 | 1014.5 |
| 20260510063654 | 16 | 328 | 1.6 | 1.6 | 0.00 | 0.00 | 0.00 | 61 | 1014.7 |
| 20260510063150 | 16 | 268 | 0.0 | 3.2 | 0.00 | 0.00 | 0.00 | 62 | 1014.9 |
| 20260510062646 | 16 | 252 | 1.6 | 4.8 | 0.00 | 0.00 | 0.00 | 62 | 1014.7 |
| 20260510062142 | 16 | 263 | 0.0 | 1.6 | 0.00 | 0.00 | 0.00 | 62 | 1014.8 |
| 20260510061637 | 16 | 248 | 1.6 | 1.6 | 0.00 | 0.00 | 0.00 | 62 | 1014.9 |
| 20260510061135 | 16 | 280 | 4.8 | 4.8 | 0.00 | 0.00 | 0.00 | 61 | 1014.9 |
| 20260510060631 | 16 | 318 | 3.2 | 3.2 | 0.00 | 0.00 | 0.00 | 61 | 1014.8 |
| 20260510060128 | 16 | 236 | 0.0 | 1.6 | 0.00 | 0.00 | 0.00 | 62 | 1014.9 |
| 20260510055624 | 16 | 241 | 0.0 | 3.2 | 0.00 | 0.00 | 0.00 | 60 | 1014.9 |
| 20260510055122 | 16 | 242 | 3.2 | 3.2 | 0.00 | 0.00 | 0.00 | 60 | 1014.7 |
| 20260510054612 | 16 | 232 | 0.0 | 1.6 | 0.00 | 0.00 | 0.00 | 60 | 1014.5 |
| 20260510054107 | 16 | 287 | 1.6 | 1.6 | 0.00 | 0.00 | 0.00 | 58 | 1014.1 |
| 20260510053607 | 17 | 197 | 1.6 | 1.6 | 0.00 | 0.00 | 0.00 | 56 | 1014.1 |
| 20260510053104 | 17 | 204 | 0.0 | 3.2 | 0.00 | 0.00 | 0.00 | 57 | 1014.2 |
| 20260510052600 | 17 | 186 | 0.0 | 1.6 | 0.00 | 0.00 | 0.00 | 56 | 1013.9 |
| 20260510052056 | 17 | 220 | 1.6 | 1.6 | 0.00 | 0.00 | 0.00 | 56 | 1014.1 |
| 20260510051551 | 17 | 199 | 0.0 | 1.6 | 0.00 | 0.00 | 0.00 | 55 | 1014.1 |
| 20260510051048 | 17 | 216 | 1.6 | 1.6 | 0.00 | 0.00 | 0.00 | 54 | 1013.7 |
| 20260510050540 | 17 | 202 | 0.0 | 1.6 | 0.00 | 0.00 | 0.00 | 53 | 1013.9 |
| 20260510050037 | 18 | 209 | 0.0 | 1.6 | 0.00 | 0.03 | 0.03 | 52 | 1013.9 |
| 20260510045534 | 18 | 236 | 1.6 | 1.6 | 0.00 | 0.03 | 0.03 | 52 | 1013.8 |
| 20260510045030 | 18 | 206 | 0.0 | 3.2 | 0.00 | 0.03 | 0.03 | 52 | 1013.7 |
| 20260510044527 | 18 | 209 | 1.6 | 3.2 | 0.00 | 0.03 | 0.03 | 53 | 1013.6 |
| 20260510044025 | 18 | 219 | 0.0 | 4.8 | 0.00 | 0.03 | 0.03 | 53 | 1013.5 |
| 20260510043520 | 18 | 279 | 1.6 | 4.8 | 0.00 | 0.03 | 0.03 | 52 | 1013.4 |
| 20260510043015 | 18 | 245 | 1.6 | 4.8 | 0.00 | 0.03 | 0.03 | 52 | 1013.3 |
| 20260510042510 | 18 | 253 | 1.6 | 3.2 | 0.00 | 0.03 | 0.03 | 51 | 1013.4 |
| 20260510042005 | 18 | 293 | 3.2 | 4.8 | 0.00 | 0.03 | 0.03 | 51 | 1013.4 |
| 20260510041503 | 18 | 289 | 1.6 | 3.2 | 0.00 | 0.03 | 0.03 | 50 | 1013.3 |
| 20260510041000 | 18 | 294 | 4.8 | 8.0 | 0.00 | 0.03 | 0.03 | 50 | 1013.2 |
| 20260510040456 | 18 | 248 | 1.6 | 8.0 | 0.00 | 0.03 | 0.03 | 51 | 1013.1 |
| 20260510035952 | 18 | 266 | 1.6 | 1.6 | 0.00 | 0.03 | 0.03 | 51 | 1012.9 |
| 20260510035449 | 18 | 282 | 3.2 | 4.8 | 0.00 | 0.03 | 0.03 | 50 | 1012.7 |
| 20260510034948 | 18 | 236 | 1.6 | 3.2 | 0.00 | 0.03 | 0.03 | 52 | 1012.7 |
| 20260510034447 | 18 | 314 | 3.2 | 4.8 | 0.00 | 0.03 | 0.03 | 52 | 1012.6 |
| 20260510033943 | 18 | 282 | 0.0 | 3.2 | 0.00 | 0.03 | 0.03 | 53 | 1012.6 |
| 20260510033439 | 18 | 318 | 1.6 | 4.8 | 0.00 | 0.03 | 0.03 | 53 | 1012.5 |
| 20260510032937 | 18 | 356 | 1.6 | 3.2 | 0.00 | 0.03 | 0.03 | 53 | 1012.4 |
| 20260510032434 | 18 | 332 | 3.2 | 8.0 | 0.00 | 0.03 | 0.03 | 52 | 1012.4 |
| 20260510031928 | 18 | 311 | 1.6 | 3.2 | 0.00 | 0.03 | 0.03 | 51 | 1012.3 |
| 20260510031424 | 18 | 322 | 4.8 | 4.8 | 0.00 | 0.03 | 0.03 | 51 | 1012.5 |
| 20260510030920 | 19 | 69 | 1.6 | 3.2 | 0.00 | 0.03 | 0.03 | 50 | 1012.1 |
| 20260510030416 | 19 | 336 | 9.7 | 11.3 | 0.00 | 0.03 | 0.03 | 49 | 1012.1 |
| 20260510025914 | 19 | 16 | 4.8 | 4.8 | 0.00 | 0.03 | 0.03 | 48 | 1012.1 |
| 20260510025411 | 19 | 54 | 3.2 | 9.7 | 0.00 | 0.03 | 0.03 | 48 | 1011.9 |
| 20260510024908 | 19 | 39 | 3.2 | 4.8 | 0.00 | 0.03 | 0.03 | 48 | 1011.6 |
| 20260510024404 | 20 | 58 | 3.2 | 9.7 | 0.00 | 0.03 | 0.03 | 47 | 1011.7 |
| 20260510023900 | 20 | 321 | 1.6 | 4.8 | 0.00 | 0.03 | 0.03 | 47 | 1011.6 |
| 20260510023356 | 20 | 34 | 3.2 | 8.0 | 0.00 | 0.03 | 0.03 | 47 | 1011.2 |
| 20260510022854 | 20 | 72 | 1.6 | 4.8 | 0.00 | 0.03 | 0.03 | 47 | 1011.3 |
| 20260510022353 | 20 | 329 | 8.0 | 11.3 | 0.00 | 0.03 | 0.03 | 46 | 1011.1 |
| 20260510021851 | 20 | 31 | 4.8 | 14.5 | 0.00 | 0.03 | 0.03 | 46 | 1010.9 |
| 20260510021350 | 18 | 28 | 4.8 | 12.9 | 0.00 | 0.03 | 0.03 | 49 | 1010.6 |
| 20260510020846 | 17 | 87 | 3.2 | 3.2 | 0.00 | 0.03 | 0.03 | 60 | 1010.5 |
| 20260510020346 | 17 | 2 | 4.8 | 9.7 | 0.00 | 0.03 | 0.03 | 64 | 1010.4 |
| 20260510015842 | 18 | 309 | 1.6 | 3.2 | 0.00 | 0.03 | 0.03 | 64 | 1010.0 |
| 20260510015338 | 18 | 240 | 1.6 | 1.6 | 0.00 | 0.03 | 0.03 | 62 | 1009.6 |
| 20260510014834 | 19 | 167 | 0.0 | 0.0 | 0.00 | 0.03 | 0.03 | 60 | 1009.7 |
| 20260510014331 | 20 | 167 | 0.0 | 0.0 | 0.00 | 0.03 | 0.03 | 56 | 1009.7 |
| 20260510013827 | 20 | 178 | 1.6 | 3.2 | 0.00 | 0.03 | 0.03 | 51 | 1009.7 |
| 20260510013323 | 20 | 174 | 3.2 | 4.8 | 0.00 | 0.03 | 0.03 | 51 | 1009.8 |
| 20260510012818 | 18 | 165 | 4.8 | 4.8 | 0.00 | 0.03 | 0.03 | 59 | 1009.6 |
| 20260510012318 | 18 | 200 | 0.0 | 0.0 | 0.00 | 0.03 | 0.03 | 58 | 1009.5 |
| 20260510011813 | 19 | 200 | 0.0 | 0.0 | 0.00 | 0.03 | 0.03 | 59 | 1009.5 |
| 20260510011308 | 20 | 200 | 0.0 | 0.0 | 0.00 | 0.03 | 0.03 | 58 | 1009.6 |
| 20260510010805 | 20 | 200 | 0.0 | 0.0 | 0.00 | 0.03 | 0.03 | 57 | 1009.6 |
| 20260510010303 | 20 | 200 | 0.0 | 0.0 | 0.00 | 0.03 | 0.03 | 54 | 1009.3 |
| 20260510005759 | 21 | 197 | 0.0 | 0.0 | 0.00 | 0.03 | 0.03 | 52 | 1009.3 |
| 20260510005255 | 21 | 196 | 0.0 | 0.0 | 0.00 | 0.03 | 0.03 | 48 | 1009.1 |
| 20260510004753 | 22 | 196 | 0.0 | 0.0 | 0.00 | 0.03 | 0.03 | 45 | 1009.1 |
| 20260510004251 | 22 | 199 | 0.0 | 0.0 | 0.00 | 0.03 | 0.03 | 43 | 1009.1 |
| 20260510003748 | 23 | 198 | 0.0 | 0.0 | 0.00 | 0.03 | 0.03 | 39 | 1009.1 |
| 20260510003244 | 23 | 210 | 0.0 | 3.2 | 0.00 | 0.03 | 0.03 | 38 | 1008.9 |
| 20260510002743 | 24 | 213 | 0.0 | 1.6 | 0.00 | 0.03 | 0.03 | 37 | 1009.0 |
| 20260510002241 | 25 | 251 | 0.0 | 0.0 | 0.00 | 0.03 | 0.03 | 36 | 1008.9 |
| 20260510001738 | 25 | 197 | 1.6 | 4.8 | 0.00 | 0.03 | 0.03 | 35 | 1008.9 |
| 20260510001236 | 25 | 191 | 0.0 | 8.0 | 0.00 | 0.03 | 0.03 | 35 | 1008.9 |
| 20260510000731 | 25 | 244 | 4.8 | 8.0 | 0.00 | 0.03 | 0.03 | 34 | 1008.9 |
| 20260510000229 | 25 | 227 | 4.8 | 11.3 | 0.00 | 0.03 | 0.03 | 34 | 1008.8 |
| 20260509235726 | 25 | 256 | 4.8 | 4.8 | 0.00 | 0.03 | 0.03 | 34 | 1008.7 |
| 20260509235222 | 25 | 198 | 0.0 | 4.8 | 0.00 | 0.03 | 0.03 | 33 | 1008.8 |
| 20260509234718 | 25 | 244 | 4.8 | 9.7 | 0.00 | 0.03 | 0.03 | 33 | 1008.7 |
| 20260509234215 | 25 | 257 | 4.8 | 8.0 | 0.00 | 0.03 | 0.03 | 33 | 1008.8 |
| 20260509233714 | 25 | 210 | 3.2 | 9.7 | 0.00 | 0.03 | 0.03 | 33 | 1008.8 |
| 20260509233211 | 25 | 309 | 4.8 | 8.0 | 0.00 | 0.03 | 0.03 | 32 | 1008.8 |
| 20260509232707 | 25 | 258 | 6.4 | 11.3 | 0.00 | 0.03 | 0.03 | 31 | 1008.7 |
| 20260509232204 | 25 | 186 | 1.6 | 14.5 | 0.00 | 0.03 | 0.03 | 32 | 1008.7 |
| 20260509231700 | 26 | 244 | 4.8 | 9.7 | 0.00 | 0.03 | 0.03 | 33 | 1008.8 |
| 20260509231158 | 26 | 3 | 1.6 | 12.9 | 0.00 | 0.03 | 0.03 | 31 | 1008.7 |
| 20260509230655 | 26 | 284 | 6.4 | 11.3 | 0.00 | 0.03 | 0.03 | 32 | 1008.5 |
| 20260509230151 | 26 | 267 | 9.7 | 12.9 | 0.00 | 0.03 | 0.03 | 31 | 1008.6 |
| 20260509225647 | 26 | 219 | 6.4 | 17.7 | 0.00 | 0.03 | 0.03 | 32 | 1008.7 |
| 20260509225143 | 26 | 259 | 4.8 | 14.5 | 0.00 | 0.03 | 0.03 | 31 | 1008.7 |
| 20260509224638 | 26 | 218 | 1.6 | 8.0 | 0.00 | 0.03 | 0.03 | 32 | 1008.7 |
| 20260509224136 | 26 | 203 | 1.6 | 8.0 | 0.00 | 0.03 | 0.03 | 31 | 1008.6 |
| 20260509223632 | 26 | 304 | 6.4 | 14.5 | 0.00 | 0.03 | 0.03 | 32 | 1008.5 |
| 20260509223130 | 25 | 298 | 6.4 | 8.0 | 0.00 | 0.03 | 0.03 | 33 | 1008.5 |
| 20260509222626 | 26 | 279 | 11.3 | 14.5 | 0.00 | 0.03 | 0.03 | 33 | 1008.5 |
| 20260509222122 | 26 | 229 | 6.4 | 9.7 | 0.00 | 0.03 | 0.03 | 33 | 1008.4 |
| 20260509221618 | 25 | 237 | 9.7 | 16.1 | 0.00 | 0.03 | 0.03 | 32 | 1008.4 |
| 20260509221114 | 25 | 269 | 4.8 | 17.7 | 0.00 | 0.03 | 0.03 | 33 | 1008.5 |
| 20260509220604 | 26 | 301 | 14.5 | 16.1 | 0.00 | 0.03 | 0.03 | 33 | 1008.6 |
| 20260509215556 | 25 | 323 | 8.0 | 16.1 | 0.00 | 0.03 | 0.03 | 32 | 1008.6 |
| 20260509215054 | 26 | 264 | 9.7 | 24.1 | 0.00 | 0.03 | 0.03 | 34 | 1008.3 |
| 20260509214551 | 26 | 157 | 4.8 | 4.8 | 0.00 | 0.03 | 0.03 | 33 | 1008.4 |
| 20260509214048 | 26 | 269 | 9.7 | 12.9 | 0.00 | 0.03 | 0.03 | 34 | 1008.5 |
| 20260509213544 | 25 | 252 | 11.3 | 17.7 | 0.00 | 0.03 | 0.03 | 34 | 1008.3 |
| 20260509213041 | 25 | 136 | 1.6 | 4.8 | 0.00 | 0.03 | 0.03 | 35 | 1008.5 |
| 20260509212538 | 25 | 276 | 8.0 | 11.3 | 0.00 | 0.03 | 0.03 | 35 | 1008.5 |
| 20260509212035 | 25 | 349 | 17.7 | 27.4 | 0.00 | 0.03 | 0.03 | 35 | 1008.3 |
| 20260509211530 | 25 | 271 | 6.4 | 17.7 | 0.00 | 0.03 | 0.03 | 35 | 1008.5 |
| 20260509211027 | 26 | 272 | 9.7 | 12.9 | 0.00 | 0.03 | 0.03 | 36 | 1008.3 |
| 20260509210524 | 26 | 187 | 4.8 | 12.9 | 0.00 | 0.03 | 0.03 | 37 | 1008.6 |
| 20260509210020 | 25 | 270 | 12.9 | 16.1 | 0.00 | 0.03 | 0.03 | 36 | 1008.6 |
| 20260509205515 | 25 | 267 | 8.0 | 12.9 | 0.00 | 0.03 | 0.03 | 39 | 1008.7 |
| 20260509205010 | 25 | 278 | 8.0 | 11.3 | 0.00 | 0.03 | 0.03 | 38 | 1008.6 |
| 20260509204507 | 25 | 259 | 4.8 | 16.1 | 0.00 | 0.03 | 0.03 | 39 | 1008.7 |
| 20260509204004 | 25 | 212 | 8.0 | 17.7 | 0.00 | 0.03 | 0.03 | 38 | 1008.6 |
| 20260509203459 | 25 | 267 | 3.2 | 9.7 | 0.00 | 0.03 | 0.03 | 39 | 1008.7 |
| 20260509202957 | 25 | 238 | 11.3 | 22.5 | 0.00 | 0.03 | 0.03 | 38 | 1008.9 |
| 20260509202453 | 25 | 270 | 12.9 | 16.1 | 0.00 | 0.03 | 0.03 | 40 | 1008.9 |
| 20260509201948 | 25 | 231 | 12.9 | 17.7 | 0.00 | 0.03 | 0.03 | 41 | 1008.8 |
| 20260509201443 | 25 | 224 | 4.8 | 14.5 | 0.00 | 0.03 | 0.03 | 39 | 1009.0 |
| 20260509200941 | 25 | 308 | 12.9 | 17.7 | 0.00 | 0.03 | 0.03 | 40 | 1009.0 |
| 20260509200441 | 25 | 261 | 8.0 | 14.5 | 0.00 | 0.03 | 0.03 | 42 | 1009.0 |
| 20260509195937 | 24 | 258 | 9.7 | 22.5 | 0.00 | 0.03 | 0.03 | 45 | 1009.1 |
| 20260509195433 | 24 | 262 | 11.3 | 22.5 | 0.00 | 0.03 | 0.03 | 42 | 1009.0 |
| 20260509194926 | 24 | 158 | 9.7 | 12.9 | 0.00 | 0.03 | 0.03 | 44 | 1009.0 |
| 20260509194422 | 24 | 257 | 4.8 | 4.8 | 0.00 | 0.03 | 0.03 | 46 | 1009.0 |
| 20260509193920 | 24 | 184 | 8.0 | 22.5 | 0.00 | 0.03 | 0.03 | 45 | 1009.1 |
| 20260509193419 | 24 | 252 | 12.9 | 16.1 | 0.00 | 0.03 | 0.03 | 46 | 1009.1 |
| 20260509192916 | 23 | 264 | 11.3 | 14.5 | 0.00 | 0.03 | 0.03 | 45 | 1009.3 |
| 20260509192412 | 23 | 244 | 8.0 | 24.1 | 0.00 | 0.03 | 0.03 | 46 | 1009.1 |
| 20260509191907 | 23 | 289 | 8.0 | 24.1 | 0.00 | 0.03 | 0.03 | 48 | 1008.9 |
| 20260509191403 | 23 | 281 | 20.9 | 24.1 | 0.00 | 0.03 | 0.03 | 47 | 1009.1 |
| 20260509190859 | 24 | 262 | 8.0 | 17.7 | 0.00 | 0.03 | 0.03 | 48 | 1009.1 |